Green Cadiz — EAUE — position and weather

sailwx.info

Track history (hours):
 
Tides and Currents Weather Stations Pressure Air Temp Water Temp Dewpoint Dewpoint Depression Visibility Wind Speed Wind Dir Waves Ship Positions

Green Cadiz

Last reported at 2017-Dec-17 02:00 UTC. Time now 2017-Dec-17 02:25 UTC.
Position N 36°09' W 005°22'.

Length 68 m; draft 5.1 m.

Type: Ship (hazmat cat A). MMSI: 224805000.

Date/timePositionNaut miles runAvg speedWind from/ knotsBaromVisibWave heightAir tempDewpointWater temp
2017-Dec-17 02:00N 36°09' W 005°22'3 5.8
2017-Dec-17 01:30N 36°08' W 005°26'0 0.1
2017-Dec-16 23:26N 36°08' W 005°26'0 0.0
2017-Dec-16 23:00N 36°08' W 005°26'0 0.0
2017-Dec-16 22:29N 36°08' W 005°26'0 0.0
2017-Dec-16 21:59N 36°08' W 005°26'0 0.0
2017-Dec-16 18:44N 36°08' W 005°26'2 5.6
2017-Dec-16 18:27N 36°09' W 005°24'2 5.0
2017-Dec-16 18:01N 36°07' W 005°22'0 0.1
2017-Dec-16 15:44N 36°07' W 005°22'0 0.0
2017-Dec-16 15:28N 36°07' W 005°22'0 0.1
2017-Dec-16 13:56N 36°07' W 005°22'0 0.0
2017-Dec-16 07:43N 36°07' W 005°22'0 0.1
2017-Dec-16 07:31N 36°07' W 005°22'0 0.0
2017-Dec-16 05:39N 36°07' W 005°22'0 0.1
2017-Dec-16 05:30N 36°07' W 005°22'0 0.1
2017-Dec-16 05:00N 36°07' W 005°22'0 0.0
2017-Dec-16 04:30N 36°07' W 005°22'0 0.0
2017-Dec-16 04:00N 36°07' W 005°22'0 0.1
2017-Dec-16 03:31N 36°07' W 005°22'0 0.1
2017-Dec-16 03:00N 36°07' W 005°22'3 0.5
2017-Dec-15 21:21N 36°08' W 005°26'0 0.0
2017-Dec-15 20:54N 36°08' W 005°26'0 0.0
2017-Dec-15 20:30N 36°08' W 005°26'0 0.0
2017-Dec-15 19:56N 36°08' W 005°26'0 0.0
2017-Dec-15 19:29N 36°08' W 005°26'3 0.1
2017-Dec-15 00:17N 36°09' W 005°22'3 0.1
2017-Dec-14 04:56N 36°09' W 005°26'0 0.0
2017-Dec-14 04:29N 36°09' W 005°26'0 0.0
2017-Dec-14 03:58N 36°09' W 005°26'0 0.0
2017-Dec-14 03:28N 36°09' W 005°26'0 0.0
2017-Dec-14 00:22N 36°09' W 005°26'0 0.0
2017-Dec-13 23:56N 36°09' W 005°26'0 0.0
2017-Dec-13 23:30N 36°09' W 005°26'0 0.0
2017-Dec-13 22:44N 36°09' W 005°26'0 0.0
2017-Dec-13 22:25N 36°09' W 005°26'0 0.0
2017-Dec-13 22:00N 36°09' W 005°26'0 0.0
2017-Dec-13 21:18N 36°09' W 005°26'0 0.0
2017-Dec-13 20:48N 36°09' W 005°26'3 0.2
2017-Dec-13 04:44N 36°09' W 005°22'0 0.0
2017-Dec-13 04:29N 36°09' W 005°22'0 0.0
2017-Dec-13 04:01N 36°09' W 005°22'0 0.0
2017-Dec-13 03:30N 36°09' W 005°22'0 0.0
2017-Dec-13 03:00N 36°09' W 005°22'0 0.0
2017-Dec-13 02:29N 36°09' W 005°22'0 0.0
2017-Dec-13 02:00N 36°09' W 005°22'0 0.0
2017-Dec-13 01:24N 36°09' W 005°22'0 0.0
2017-Dec-13 00:11N 36°09' W 005°22'0 0.6
2017-Dec-13 00:00N 36°09' W 005°22'1 1.9
2017-Dec-12 23:30N 36°08' W 005°23'0 0.0
2017-Dec-12 22:55N 36°08' W 005°23'0 0.1
2017-Dec-12 22:30N 36°08' W 005°23'0 0.0
2017-Dec-12 22:00N 36°08' W 005°23'0 0.0
2017-Dec-12 21:19N 36°08' W 005°23'0 0.0
2017-Dec-12 19:59N 36°08' W 005°23'0 0.0
2017-Dec-12 03:34N 36°08' W 005°23'1 3.4
2017-Dec-12 03:17N 36°07' W 005°22'0 0.1
2017-Dec-12 03:00N 36°07' W 005°22'0 0.0
2017-Dec-12 02:30N 36°07' W 005°22'0 0.0
2017-Dec-12 02:00N 36°07' W 005°22'0 0.0
2017-Dec-12 01:30N 36°07' W 005°22'0 0.0
2017-Dec-12 01:00N 36°07' W 005°22'0 0.0
2017-Dec-12 00:30N 36°07' W 005°22'0 0.1
2017-Dec-12 00:00N 36°07' W 005°22'0 0.0
2017-Dec-11 23:30N 36°07' W 005°22'0 0.0
2017-Dec-11 23:00N 36°07' W 005°22'0 0.0
2017-Dec-11 22:30N 36°07' W 005°22'0 0.0
2017-Dec-11 22:00N 36°07' W 005°22'0 0.0
2017-Dec-11 21:30N 36°07' W 005°22'0 0.1
2017-Dec-11 21:00N 36°08' W 005°22'0 0.3
2017-Dec-11 20:30N 36°08' W 005°22'1 1.6
2017-Dec-11 20:00N 36°08' W 005°22'0 0.0
2017-Dec-11 19:07N 36°08' W 005°22'0 0.1
2017-Dec-11 18:59N 36°08' W 005°22'0 0.0
2017-Dec-11 18:17N 36°08' W 005°22'0 0.0
2017-Dec-11 17:46N 36°08' W 005°22'0 0.0
2017-Dec-11 17:13N 36°08' W 005°22'0 0.0
2017-Dec-11 16:50N 36°08' W 005°22'  
Track history (hours):
 
Tides and Currents Weather Stations Pressure Air Temp Water Temp Dewpoint Dewpoint Depression Visibility Wind Speed Wind Dir Waves Ship Positions

Green Cadiz

Last reported at 2017-Dec-17 02:00 UTC. Time now 2017-Dec-17 02:25 UTC.
Position N 36°09' W 005°22'.

Length 68 m; draft 5.1 m.

Type: Ship (hazmat cat A). MMSI: 224805000.

Date/timePositionNaut miles runAvg speedWind from/ knotsBaromVisibWave heightAir tempDewpointWater temp
2017-Dec-17 02:00N 36°09' W 005°22'3 5.8
2017-Dec-17 01:30N 36°08' W 005°26'0 0.1
2017-Dec-16 23:26N 36°08' W 005°26'0 0.0
2017-Dec-16 23:00N 36°08' W 005°26'0 0.0
2017-Dec-16 22:29N 36°08' W 005°26'0 0.0
2017-Dec-16 21:59N 36°08' W 005°26'0 0.0
2017-Dec-16 18:44N 36°08' W 005°26'2 5.6
2017-Dec-16 18:27N 36°09' W 005°24'2 5.0
2017-Dec-16 18:01N 36°07' W 005°22'0 0.1
2017-Dec-16 15:44N 36°07' W 005°22'0 0.0
2017-Dec-16 15:28N 36°07' W 005°22'0 0.1
2017-Dec-16 13:56N 36°07' W 005°22'0 0.0
2017-Dec-16 07:43N 36°07' W 005°22'0 0.1
2017-Dec-16 07:31N 36°07' W 005°22'0 0.0
2017-Dec-16 05:39N 36°07' W 005°22'0 0.1
2017-Dec-16 05:30N 36°07' W 005°22'0 0.1
2017-Dec-16 05:00N 36°07' W 005°22'0 0.0
2017-Dec-16 04:30N 36°07' W 005°22'0 0.0
2017-Dec-16 04:00N 36°07' W 005°22'0 0.1
2017-Dec-16 03:31N 36°07' W 005°22'0 0.1
2017-Dec-16 03:00N 36°07' W 005°22'3 0.5
2017-Dec-15 21:21N 36°08' W 005°26'0 0.0
2017-Dec-15 20:54N 36°08' W 005°26'0 0.0
2017-Dec-15 20:30N 36°08' W 005°26'0 0.0
2017-Dec-15 19:56N 36°08' W 005°26'0 0.0
2017-Dec-15 19:29N 36°08' W 005°26'3 0.1
2017-Dec-15 00:17N 36°09' W 005°22'3 0.1
2017-Dec-14 04:56N 36°09' W 005°26'0 0.0
2017-Dec-14 04:29N 36°09' W 005°26'0 0.0
2017-Dec-14 03:58N 36°09' W 005°26'0 0.0
2017-Dec-14 03:28N 36°09' W 005°26'0 0.0
2017-Dec-14 00:22N 36°09' W 005°26'0 0.0
2017-Dec-13 23:56N 36°09' W 005°26'0 0.0
2017-Dec-13 23:30N 36°09' W 005°26'0 0.0
2017-Dec-13 22:44N 36°09' W 005°26'0 0.0
2017-Dec-13 22:25N 36°09' W 005°26'0 0.0
2017-Dec-13 22:00N 36°09' W 005°26'0 0.0
2017-Dec-13 21:18N 36°09' W 005°26'0 0.0
2017-Dec-13 20:48N 36°09' W 005°26'3 0.2
2017-Dec-13 04:44N 36°09' W 005°22'0 0.0
2017-Dec-13 04:29N 36°09' W 005°22'0 0.0
2017-Dec-13 04:01N 36°09' W 005°22'0 0.0
2017-Dec-13 03:30N 36°09' W 005°22'0 0.0
2017-Dec-13 03:00N 36°09' W 005°22'0 0.0
2017-Dec-13 02:29N 36°09' W 005°22'0 0.0
2017-Dec-13 02:00N 36°09' W 005°22'0 0.0
2017-Dec-13 01:24N 36°09' W 005°22'0 0.0
2017-Dec-13 00:11N 36°09' W 005°22'0 0.6
2017-Dec-13 00:00N 36°09' W 005°22'1 1.9
2017-Dec-12 23:30N 36°08' W 005°23'0 0.0
2017-Dec-12 22:55N 36°08' W 005°23'0 0.1
2017-Dec-12 22:30N 36°08' W 005°23'0 0.0
2017-Dec-12 22:00N 36°08' W 005°23'0 0.0
2017-Dec-12 21:19N 36°08' W 005°23'0 0.0
2017-Dec-12 19:59N 36°08' W 005°23'0 0.0
2017-Dec-12 03:34N 36°08' W 005°23'1 3.4
2017-Dec-12 03:17N 36°07' W 005°22'0 0.1
2017-Dec-12 03:00N 36°07' W 005°22'0 0.0
2017-Dec-12 02:30N 36°07' W 005°22'0 0.0
2017-Dec-12 02:00N 36°07' W 005°22'0 0.0
2017-Dec-12 01:30N 36°07' W 005°22'0 0.0
2017-Dec-12 01:00N 36°07' W 005°22'0 0.0
2017-Dec-12 00:30N 36°07' W 005°22'0 0.1
2017-Dec-12 00:00N 36°07' W 005°22'0 0.0
2017-Dec-11 23:30N 36°07' W 005°22'0 0.0
2017-Dec-11 23:00N 36°07' W 005°22'0 0.0
2017-Dec-11 22:30N 36°07' W 005°22'0 0.0
2017-Dec-11 22:00N 36°07' W 005°22'0 0.0
2017-Dec-11 21:30N 36°07' W 005°22'0 0.1
2017-Dec-11 21:00N 36°08' W 005°22'0 0.3
2017-Dec-11 20:30N 36°08' W 005°22'1 1.6
2017-Dec-11 20:00N 36°08' W 005°22'0 0.0
2017-Dec-11 19:07N 36°08' W 005°22'0 0.1
2017-Dec-11 18:59N 36°08' W 005°22'0 0.0
2017-Dec-11 18:17N 36°08' W 005°22'0 0.0
2017-Dec-11 17:46N 36°08' W 005°22'0 0.0
2017-Dec-11 17:13N 36°08' W 005°22'0 0.0
2017-Dec-11 16:50N 36°08' W 005°22'  

Dump ship's entire track history